sensor_id;sensor_type;location;lat;lon;timestamp;P1;durP1;ratioP1;P2;durP2;ratioP2
912;SDS011;443;51.448;7.028;2023-11-21T00:00:20;6.50;;;4.80;;
912;SDS011;443;51.448;7.028;2023-11-21T00:02:48;6.17;;;4.07;;
912;SDS011;443;51.448;7.028;2023-11-21T00:05:15;5.77;;;4.30;;
912;SDS011;443;51.448;7.028;2023-11-21T00:07:42;9.43;;;6.03;;
912;SDS011;443;51.448;7.028;2023-11-21T00:10:10;5.90;;;4.27;;
912;SDS011;443;51.448;7.028;2023-11-21T00:12:39;10.90;;;4.80;;
912;SDS011;443;51.448;7.028;2023-11-21T00:15:07;8.20;;;4.50;;
912;SDS011;443;51.448;7.028;2023-11-21T00:17:35;6.57;;;4.17;;
912;SDS011;443;51.448;7.028;2023-11-21T00:20:05;11.00;;;5.37;;
912;SDS011;443;51.448;7.028;2023-11-21T00:22:33;6.40;;;4.10;;
912;SDS011;443;51.448;7.028;2023-11-21T00:25:00;10.37;;;5.17;;
912;SDS011;443;51.448;7.028;2023-11-21T00:27:28;5.90;;;4.53;;
912;SDS011;443;51.448;7.028;2023-11-21T00:29:55;7.10;;;4.77;;
912;SDS011;443;51.448;7.028;2023-11-21T00:32:22;8.03;;;4.73;;
912;SDS011;443;51.448;7.028;2023-11-21T00:34:49;10.73;;;3.80;;
912;SDS011;443;51.448;7.028;2023-11-21T00:37:17;7.37;;;4.20;;
912;SDS011;443;51.448;7.028;2023-11-21T00:39:43;5.80;;;4.10;;
912;SDS011;443;51.448;7.028;2023-11-21T00:42:10;6.80;;;4.33;;
912;SDS011;443;51.448;7.028;2023-11-21T00:44:37;6.00;;;4.90;;
912;SDS011;443;51.448;7.028;2023-11-21T00:47:04;7.97;;;5.17;;
912;SDS011;443;51.448;7.028;2023-11-21T00:49:31;11.20;;;4.40;;
912;SDS011;443;51.448;7.028;2023-11-21T00:51:58;9.00;;;3.87;;
912;SDS011;443;51.448;7.028;2023-11-21T00:54:26;7.97;;;4.90;;
912;SDS011;443;51.448;7.028;2023-11-21T00:56:53;12.33;;;6.03;;
912;SDS011;443;51.448;7.028;2023-11-21T00:59:20;6.93;;;4.90;;
912;SDS011;443;51.448;7.028;2023-11-21T01:01:48;10.20;;;5.30;;
912;SDS011;443;51.448;7.028;2023-11-21T01:04:14;6.13;;;4.27;;
912;SDS011;443;51.448;7.028;2023-11-21T01:06:41;6.20;;;5.10;;
912;SDS011;443;51.448;7.028;2023-11-21T01:09:08;8.90;;;4.47;;
912;SDS011;443;51.448;7.028;2023-11-21T01:11:36;7.37;;;5.37;;
912;SDS011;443;51.448;7.028;2023-11-21T01:14:04;10.33;;;4.60;;
912;SDS011;443;51.448;7.028;2023-11-21T01:16:31;5.17;;;3.83;;
912;SDS011;443;51.448;7.028;2023-11-21T01:18:58;14.13;;;4.40;;
912;SDS011;443;51.448;7.028;2023-11-21T01:21:26;8.67;;;4.33;;
912;SDS011;443;51.448;7.028;2023-11-21T01:23:53;8.23;;;4.20;;
912;SDS011;443;51.448;7.028;2023-11-21T01:26:20;7.07;;;4.10;;
912;SDS011;443;51.448;7.028;2023-11-21T01:28:48;10.27;;;4.20;;
912;SDS011;443;51.448;7.028;2023-11-21T01:31:15;10.20;;;4.80;;
912;SDS011;443;51.448;7.028;2023-11-21T01:33:41;5.33;;;4.13;;
912;SDS011;443;51.448;7.028;2023-11-21T01:36:09;11.50;;;4.10;;
912;SDS011;443;51.448;7.028;2023-11-21T01:38:36;8.87;;;4.83;;
912;SDS011;443;51.448;7.028;2023-11-21T01:41:03;7.03;;;4.93;;
912;SDS011;443;51.448;7.028;2023-11-21T01:43:31;8.03;;;5.10;;
912;SDS011;443;51.448;7.028;2023-11-21T01:45:59;12.37;;;5.73;;
912;SDS011;443;51.448;7.028;2023-11-21T01:48:26;7.30;;;5.00;;
912;SDS011;443;51.448;7.028;2023-11-21T01:50:54;8.30;;;4.20;;
912;SDS011;443;51.448;7.028;2023-11-21T01:53:21;11.37;;;4.67;;
912;SDS011;443;51.448;7.028;2023-11-21T01:55:50;8.93;;;5.00;;
912;SDS011;443;51.448;7.028;2023-11-21T01:58:18;6.13;;;4.73;;
912;SDS011;443;51.448;7.028;2023-11-21T02:00:46;7.13;;;3.90;;
912;SDS011;443;51.448;7.028;2023-11-21T02:03:17;8.03;;;4.97;;
912;SDS011;443;51.448;7.028;2023-11-21T02:05:43;8.50;;;4.47;;
912;SDS011;443;51.448;7.028;2023-11-21T02:08:10;9.03;;;4.80;;
912;SDS011;443;51.448;7.028;2023-11-21T02:10:37;9.80;;;6.00;;
912;SDS011;443;51.448;7.028;2023-11-21T02:13:03;9.70;;;4.83;;
912;SDS011;443;51.448;7.028;2023-11-21T02:15:31;7.30;;;4.60;;
912;SDS011;443;51.448;7.028;2023-11-21T02:17:58;5.33;;;4.03;;
912;SDS011;443;51.448;7.028;2023-11-21T02:20:27;6.67;;;4.50;;
912;SDS011;443;51.448;7.028;2023-11-21T02:22:56;7.77;;;4.77;;
912;SDS011;443;51.448;7.028;2023-11-21T02:25:24;7.47;;;4.33;;
912;SDS011;443;51.448;7.028;2023-11-21T02:27:51;11.20;;;5.37;;
912;SDS011;443;51.448;7.028;2023-11-21T02:30:19;5.07;;;4.53;;
912;SDS011;443;51.448;7.028;2023-11-21T02:32:46;5.40;;;4.77;;
912;SDS011;443;51.448;7.028;2023-11-21T02:35:13;8.70;;;4.80;;
912;SDS011;443;51.448;7.028;2023-11-21T02:37:40;6.97;;;5.50;;
912;SDS011;443;51.448;7.028;2023-11-21T02:40:09;6.40;;;3.63;;
912;SDS011;443;51.448;7.028;2023-11-21T02:42:38;10.13;;;5.07;;
912;SDS011;443;51.448;7.028;2023-11-21T02:45:06;7.87;;;5.60;;
912;SDS011;443;51.448;7.028;2023-11-21T02:47:33;13.50;;;7.17;;
912;SDS011;443;51.448;7.028;2023-11-21T02:50:00;7.80;;;4.37;;
912;SDS011;443;51.448;7.028;2023-11-21T02:52:27;13.77;;;5.03;;
912;SDS011;443;51.448;7.028;2023-11-21T02:54:53;6.80;;;4.23;;
912;SDS011;443;51.448;7.028;2023-11-21T02:57:22;8.00;;;4.80;;
912;SDS011;443;51.448;7.028;2023-11-21T02:59:49;6.60;;;4.37;;
912;SDS011;443;51.448;7.028;2023-11-21T03:02:15;9.90;;;4.90;;
912;SDS011;443;51.448;7.028;2023-11-21T03:04:42;9.83;;;4.80;;
912;SDS011;443;51.448;7.028;2023-11-21T03:07:09;7.83;;;5.77;;
912;SDS011;443;51.448;7.028;2023-11-21T03:09:36;6.10;;;4.43;;
912;SDS011;443;51.448;7.028;2023-11-21T03:12:03;9.63;;;5.40;;
912;SDS011;443;51.448;7.028;2023-11-21T03:14:31;8.97;;;4.80;;
912;SDS011;443;51.448;7.028;2023-11-21T03:16:58;6.60;;;5.20;;
912;SDS011;443;51.448;7.028;2023-11-21T03:19:25;8.47;;;5.23;;
912;SDS011;443;51.448;7.028;2023-11-21T03:21:51;6.70;;;4.93;;
912;SDS011;443;51.448;7.028;2023-11-21T03:24:19;9.93;;;5.20;;
912;SDS011;443;51.448;7.028;2023-11-21T03:26:47;9.70;;;5.13;;
912;SDS011;443;51.448;7.028;2023-11-21T03:29:14;7.97;;;4.53;;
912;SDS011;443;51.448;7.028;2023-11-21T03:31:42;5.17;;;4.20;;
912;SDS011;443;51.448;7.028;2023-11-21T03:34:11;12.13;;;5.03;;
912;SDS011;443;51.448;7.028;2023-11-21T03:36:41;8.63;;;4.80;;
912;SDS011;443;51.448;7.028;2023-11-21T03:39:07;7.63;;;4.97;;
912;SDS011;443;51.448;7.028;2023-11-21T03:41:34;9.57;;;4.70;;
912;SDS011;443;51.448;7.028;2023-11-21T03:44:01;12.43;;;5.00;;
912;SDS011;443;51.448;7.028;2023-11-21T03:46:28;12.00;;;5.33;;
912;SDS011;443;51.448;7.028;2023-11-21T03:48:56;8.53;;;4.50;;
912;SDS011;443;51.448;7.028;2023-11-21T03:51:23;10.17;;;5.60;;
912;SDS011;443;51.448;7.028;2023-11-21T03:53:50;6.30;;;3.90;;
912;SDS011;443;51.448;7.028;2023-11-21T03:56:16;4.93;;;4.00;;
912;SDS011;443;51.448;7.028;2023-11-21T03:58:43;8.90;;;5.83;;
912;SDS011;443;51.448;7.028;2023-11-21T04:01:10;8.03;;;4.40;;
912;SDS011;443;51.448;7.028;2023-11-21T04:03:36;11.10;;;4.80;;
912;SDS011;443;51.448;7.028;2023-11-21T04:06:07;6.13;;;4.80;;
912;SDS011;443;51.448;7.028;2023-11-21T04:08:35;11.57;;;5.63;;
912;SDS011;443;51.448;7.028;2023-11-21T04:11:01;6.77;;;5.37;;
912;SDS011;443;51.448;7.028;2023-11-21T04:13:29;9.23;;;4.33;;
912;SDS011;443;51.448;7.028;2023-11-21T04:15:56;11.30;;;5.17;;
912;SDS011;443;51.448;7.028;2023-11-21T04:18:23;12.17;;;6.37;;
912;SDS011;443;51.448;7.028;2023-11-21T04:20:49;7.13;;;4.30;;
912;SDS011;443;51.448;7.028;2023-11-21T04:23:18;9.30;;;4.20;;
912;SDS011;443;51.448;7.028;2023-11-21T04:25:45;7.40;;;4.77;;
912;SDS011;443;51.448;7.028;2023-11-21T04:28:11;7.23;;;4.00;;
912;SDS011;443;51.448;7.028;2023-11-21T04:30:38;6.80;;;4.60;;
912;SDS011;443;51.448;7.028;2023-11-21T04:33:05;7.53;;;4.53;;
912;SDS011;443;51.448;7.028;2023-11-21T04:35:32;9.77;;;4.50;;
912;SDS011;443;51.448;7.028;2023-11-21T04:37:59;7.80;;;5.10;;
912;SDS011;443;51.448;7.028;2023-11-21T04:40:27;8.30;;;5.07;;
912;SDS011;443;51.448;7.028;2023-11-21T04:42:54;8.43;;;4.00;;
912;SDS011;443;51.448;7.028;2023-11-21T04:45:22;5.83;;;3.57;;
912;SDS011;443;51.448;7.028;2023-11-21T04:47:49;9.50;;;5.53;;
912;SDS011;443;51.448;7.028;2023-11-21T04:50:16;7.50;;;5.20;;
912;SDS011;443;51.448;7.028;2023-11-21T04:52:43;10.07;;;4.13;;
912;SDS011;443;51.448;7.028;2023-11-21T04:55:09;10.90;;;4.40;;
912;SDS011;443;51.448;7.028;2023-11-21T04:57:37;10.30;;;4.80;;
912;SDS011;443;51.448;7.028;2023-11-21T05:00:06;10.50;;;4.37;;
912;SDS011;443;51.448;7.028;2023-11-21T05:02:35;9.83;;;6.10;;
912;SDS011;443;51.448;7.028;2023-11-21T05:05:03;8.77;;;4.87;;
912;SDS011;443;51.448;7.028;2023-11-21T05:07:30;9.30;;;5.07;;
912;SDS011;443;51.448;7.028;2023-11-21T05:10:00;9.73;;;4.77;;
912;SDS011;443;51.448;7.028;2023-11-21T05:12:30;9.50;;;5.23;;
912;SDS011;443;51.448;7.028;2023-11-21T05:15:00;7.37;;;5.23;;
912;SDS011;443;51.448;7.028;2023-11-21T05:17:28;17.00;;;5.60;;
912;SDS011;443;51.448;7.028;2023-11-21T05:19:54;5.80;;;5.20;;
912;SDS011;443;51.448;7.028;2023-11-21T05:22:21;9.90;;;5.40;;
912;SDS011;443;51.448;7.028;2023-11-21T05:24:48;8.40;;;5.50;;
912;SDS011;443;51.448;7.028;2023-11-21T05:27:15;6.50;;;5.27;;
912;SDS011;443;51.448;7.028;2023-11-21T05:29:42;7.03;;;4.80;;
912;SDS011;443;51.448;7.028;2023-11-21T05:32:10;7.90;;;5.43;;
912;SDS011;443;51.448;7.028;2023-11-21T05:34:37;8.50;;;5.67;;
912;SDS011;443;51.448;7.028;2023-11-21T05:37:04;6.93;;;4.73;;
912;SDS011;443;51.448;7.028;2023-11-21T05:39:31;9.07;;;4.60;;
912;SDS011;443;51.448;7.028;2023-11-21T05:41:57;9.17;;;5.57;;
912;SDS011;443;51.448;7.028;2023-11-21T05:44:25;11.60;;;6.63;;
912;SDS011;443;51.448;7.028;2023-11-21T05:46:51;8.13;;;5.67;;
912;SDS011;443;51.448;7.028;2023-11-21T05:49:19;12.03;;;6.63;;
912;SDS011;443;51.448;7.028;2023-11-21T05:51:48;11.47;;;6.80;;
912;SDS011;443;51.448;7.028;2023-11-21T05:54:14;11.63;;;5.40;;
912;SDS011;443;51.448;7.028;2023-11-21T05:56:41;9.60;;;5.57;;
912;SDS011;443;51.448;7.028;2023-11-21T05:59:09;7.37;;;5.57;;
912;SDS011;443;51.448;7.028;2023-11-21T06:01:36;15.63;;;9.47;;
912;SDS011;443;51.448;7.028;2023-11-21T06:04:03;15.07;;;7.83;;
912;SDS011;443;51.448;7.028;2023-11-21T06:06:32;16.27;;;9.27;;
912;SDS011;443;51.448;7.028;2023-11-21T06:08:59;14.27;;;9.70;;
912;SDS011;443;51.448;7.028;2023-11-21T06:11:26;14.70;;;9.77;;
912;SDS011;443;51.448;7.028;2023-11-21T06:13:53;20.43;;;11.23;;
912;SDS011;443;51.448;7.028;2023-11-21T06:16:19;17.10;;;9.60;;
912;SDS011;443;51.448;7.028;2023-11-21T06:18:46;21.40;;;9.60;;
912;SDS011;443;51.448;7.028;2023-11-21T06:21:13;14.73;;;9.73;;
912;SDS011;443;51.448;7.028;2023-11-21T06:23:43;16.73;;;9.77;;
912;SDS011;443;51.448;7.028;2023-11-21T06:26:09;15.30;;;9.37;;
912;SDS011;443;51.448;7.028;2023-11-21T06:28:38;18.50;;;9.87;;
912;SDS011;443;51.448;7.028;2023-11-21T06:31:04;16.20;;;10.37;;
912;SDS011;443;51.448;7.028;2023-11-21T06:33:32;20.97;;;10.33;;
912;SDS011;443;51.448;7.028;2023-11-21T06:35:58;15.07;;;9.40;;
912;SDS011;443;51.448;7.028;2023-11-21T06:38:27;18.50;;;10.83;;
912;SDS011;443;51.448;7.028;2023-11-21T06:40:56;20.30;;;10.50;;
912;SDS011;443;51.448;7.028;2023-11-21T06:43:26;13.83;;;8.90;;
912;SDS011;443;51.448;7.028;2023-11-21T06:45:53;14.77;;;8.60;;
912;SDS011;443;51.448;7.028;2023-11-21T06:48:20;18.70;;;9.90;;
912;SDS011;443;51.448;7.028;2023-11-21T06:50:47;19.27;;;10.77;;
912;SDS011;443;51.448;7.028;2023-11-21T06:53:13;14.53;;;10.43;;
912;SDS011;443;51.448;7.028;2023-11-21T06:55:40;16.50;;;8.07;;
912;SDS011;443;51.448;7.028;2023-11-21T06:58:08;19.00;;;9.17;;
912;SDS011;443;51.448;7.028;2023-11-21T07:00:35;12.77;;;9.83;;
912;SDS011;443;51.448;7.028;2023-11-21T07:03:02;19.07;;;9.73;;
912;SDS011;443;51.448;7.028;2023-11-21T07:05:29;16.13;;;10.20;;
912;SDS011;443;51.448;7.028;2023-11-21T07:07:56;14.20;;;8.17;;
912;SDS011;443;51.448;7.028;2023-11-21T07:10:25;19.97;;;11.97;;
912;SDS011;443;51.448;7.028;2023-11-21T07:12:52;21.77;;;10.57;;
912;SDS011;443;51.448;7.028;2023-11-21T07:15:20;14.53;;;9.50;;
912;SDS011;443;51.448;7.028;2023-11-21T07:17:47;19.67;;;13.10;;
912;SDS011;443;51.448;7.028;2023-11-21T07:20:14;21.23;;;10.23;;
912;SDS011;443;51.448;7.028;2023-11-21T07:22:42;21.70;;;10.33;;
912;SDS011;443;51.448;7.028;2023-11-21T07:25:09;21.40;;;11.53;;
912;SDS011;443;51.448;7.028;2023-11-21T07:27:36;16.37;;;10.93;;
912;SDS011;443;51.448;7.028;2023-11-21T07:30:02;25.80;;;13.20;;
912;SDS011;443;51.448;7.028;2023-11-21T07:32:32;21.87;;;11.47;;
912;SDS011;443;51.448;7.028;2023-11-21T07:34:59;22.20;;;12.97;;
912;SDS011;443;51.448;7.028;2023-11-21T07:37:26;27.40;;;13.83;;
912;SDS011;443;51.448;7.028;2023-11-21T07:39:54;27.10;;;13.53;;
912;SDS011;443;51.448;7.028;2023-11-21T07:42:21;20.07;;;12.67;;
912;SDS011;443;51.448;7.028;2023-11-21T07:44:48;22.20;;;11.93;;
912;SDS011;443;51.448;7.028;2023-11-21T07:47:15;21.17;;;12.43;;
912;SDS011;443;51.448;7.028;2023-11-21T07:49:43;22.77;;;13.57;;
912;SDS011;443;51.448;7.028;2023-11-21T07:52:11;27.50;;;13.43;;
912;SDS011;443;51.448;7.028;2023-11-21T07:54:41;24.40;;;13.30;;
912;SDS011;443;51.448;7.028;2023-11-21T07:57:08;26.87;;;14.93;;
912;SDS011;443;51.448;7.028;2023-11-21T07:59:38;24.93;;;12.60;;
912;SDS011;443;51.448;7.028;2023-11-21T08:02:05;20.67;;;12.00;;
912;SDS011;443;51.448;7.028;2023-11-21T08:04:32;25.33;;;12.70;;
912;SDS011;443;51.448;7.028;2023-11-21T08:07:00;28.57;;;13.83;;
912;SDS011;443;51.448;7.028;2023-11-21T08:09:28;22.43;;;12.53;;
912;SDS011;443;51.448;7.028;2023-11-21T08:11:55;23.60;;;13.10;;
912;SDS011;443;51.448;7.028;2023-11-21T08:14:22;26.00;;;13.33;;
912;SDS011;443;51.448;7.028;2023-11-21T08:16:50;28.60;;;15.43;;
912;SDS011;443;51.448;7.028;2023-11-21T08:19:17;23.80;;;11.80;;
912;SDS011;443;51.448;7.028;2023-11-21T08:21:44;21.13;;;12.37;;
912;SDS011;443;51.448;7.028;2023-11-21T08:24:12;25.70;;;14.30;;
912;SDS011;443;51.448;7.028;2023-11-21T08:26:39;36.33;;;16.43;;
912;SDS011;443;51.448;7.028;2023-11-21T08:29:05;34.07;;;17.03;;
912;SDS011;443;51.448;7.028;2023-11-21T08:31:33;37.10;;;18.33;;
912;SDS011;443;51.448;7.028;2023-11-21T08:34:00;34.50;;;16.20;;
912;SDS011;443;51.448;7.028;2023-11-21T08:36:27;31.67;;;19.00;;
912;SDS011;443;51.448;7.028;2023-11-21T08:38:56;37.53;;;19.07;;
912;SDS011;443;51.448;7.028;2023-11-21T08:41:25;30.50;;;18.57;;
912;SDS011;443;51.448;7.028;2023-11-21T08:43:53;34.37;;;17.40;;
912;SDS011;443;51.448;7.028;2023-11-21T08:46:20;39.67;;;18.90;;
912;SDS011;443;51.448;7.028;2023-11-21T08:48:47;44.23;;;22.90;;
912;SDS011;443;51.448;7.028;2023-11-21T08:51:17;39.30;;;18.93;;
912;SDS011;443;51.448;7.028;2023-11-21T08:53:44;46.33;;;19.40;;
912;SDS011;443;51.448;7.028;2023-11-21T08:56:12;48.67;;;20.57;;
912;SDS011;443;51.448;7.028;2023-11-21T08:58:40;36.23;;;19.20;;
912;SDS011;443;51.448;7.028;2023-11-21T09:01:07;36.60;;;17.47;;
912;SDS011;443;51.448;7.028;2023-11-21T09:03:34;31.70;;;18.30;;
912;SDS011;443;51.448;7.028;2023-11-21T09:06:01;34.87;;;17.63;;
912;SDS011;443;51.448;7.028;2023-11-21T09:08:28;42.93;;;22.40;;
912;SDS011;443;51.448;7.028;2023-11-21T09:10:55;39.83;;;20.30;;
912;SDS011;443;51.448;7.028;2023-11-21T09:13:22;36.07;;;19.03;;
912;SDS011;443;51.448;7.028;2023-11-21T09:15:51;51.30;;;22.90;;
912;SDS011;443;51.448;7.028;2023-11-21T09:18:18;39.90;;;20.97;;
912;SDS011;443;51.448;7.028;2023-11-21T09:20:45;42.07;;;22.80;;
912;SDS011;443;51.448;7.028;2023-11-21T09:23:12;33.73;;;19.30;;
912;SDS011;443;51.448;7.028;2023-11-21T09:25:38;53.03;;;23.37;;
912;SDS011;443;51.448;7.028;2023-11-21T09:28:05;46.60;;;22.87;;
912;SDS011;443;51.448;7.028;2023-11-21T09:30:33;48.90;;;21.00;;
912;SDS011;443;51.448;7.028;2023-11-21T09:33:01;48.40;;;23.00;;
912;SDS011;443;51.448;7.028;2023-11-21T09:35:30;33.30;;;18.20;;
912;SDS011;443;51.448;7.028;2023-11-21T09:37:57;51.33;;;20.30;;
912;SDS011;443;51.448;7.028;2023-11-21T09:40:23;37.47;;;21.00;;
912;SDS011;443;51.448;7.028;2023-11-21T09:42:54;44.30;;;21.50;;
912;SDS011;443;51.448;7.028;2023-11-21T09:45:24;39.13;;;19.40;;
912;SDS011;443;51.448;7.028;2023-11-21T09:47:52;50.57;;;20.60;;
912;SDS011;443;51.448;7.028;2023-11-21T09:50:22;37.73;;;18.93;;
912;SDS011;443;51.448;7.028;2023-11-21T09:52:53;34.83;;;17.67;;
912;SDS011;443;51.448;7.028;2023-11-21T09:55:26;38.20;;;17.70;;
912;SDS011;443;51.448;7.028;2023-11-21T09:57:55;49.57;;;16.00;;
912;SDS011;443;51.448;7.028;2023-11-21T10:00:22;32.93;;;16.83;;
912;SDS011;443;51.448;7.028;2023-11-21T10:02:49;43.20;;;18.40;;
912;SDS011;443;51.448;7.028;2023-11-21T10:05:18;33.57;;;15.57;;
912;SDS011;443;51.448;7.028;2023-11-21T10:07:48;37.67;;;16.30;;
912;SDS011;443;51.448;7.028;2023-11-21T10:10:17;33.70;;;17.77;;
912;SDS011;443;51.448;7.028;2023-11-21T10:12:47;41.70;;;20.67;;
912;SDS011;443;51.448;7.028;2023-11-21T10:15:18;37.40;;;20.43;;
912;SDS011;443;51.448;7.028;2023-11-21T10:17:47;41.80;;;19.03;;
912;SDS011;443;51.448;7.028;2023-11-21T10:20:15;39.30;;;17.80;;
912;SDS011;443;51.448;7.028;2023-11-21T10:22:43;41.93;;;18.80;;
912;SDS011;443;51.448;7.028;2023-11-21T10:25:11;50.93;;;19.97;;
912;SDS011;443;51.448;7.028;2023-11-21T10:27:39;51.90;;;19.33;;
912;SDS011;443;51.448;7.028;2023-11-21T10:30:08;37.23;;;19.17;;
912;SDS011;443;51.448;7.028;2023-11-21T10:32:37;42.90;;;21.77;;
912;SDS011;443;51.448;7.028;2023-11-21T10:35:05;36.90;;;18.47;;
912;SDS011;443;51.448;7.028;2023-11-21T10:37:35;39.80;;;17.53;;
912;SDS011;443;51.448;7.028;2023-11-21T10:40:04;48.13;;;18.57;;
912;SDS011;443;51.448;7.028;2023-11-21T10:42:33;42.80;;;17.53;;
912;SDS011;443;51.448;7.028;2023-11-21T10:45:00;31.80;;;16.73;;
912;SDS011;443;51.448;7.028;2023-11-21T10:47:28;40.93;;;16.50;;
912;SDS011;443;51.448;7.028;2023-11-21T10:49:55;47.77;;;19.07;;
912;SDS011;443;51.448;7.028;2023-11-21T10:52:22;41.27;;;15.80;;
912;SDS011;443;51.448;7.028;2023-11-21T10:54:53;30.23;;;15.70;;
912;SDS011;443;51.448;7.028;2023-11-21T10:57:20;36.10;;;18.40;;
912;SDS011;443;51.448;7.028;2023-11-21T10:59:50;29.37;;;17.40;;
912;SDS011;443;51.448;7.028;2023-11-21T11:02:21;47.03;;;18.47;;
912;SDS011;443;51.448;7.028;2023-11-21T11:04:53;48.93;;;19.57;;
912;SDS011;443;51.448;7.028;2023-11-21T11:07:21;39.00;;;17.00;;
912;SDS011;443;51.448;7.028;2023-11-21T11:09:50;41.70;;;17.60;;
912;SDS011;443;51.448;7.028;2023-11-21T11:12:18;46.93;;;20.50;;
912;SDS011;443;51.448;7.028;2023-11-21T11:14:45;37.70;;;18.43;;
912;SDS011;443;51.448;7.028;2023-11-21T11:17:14;39.00;;;17.60;;
912;SDS011;443;51.448;7.028;2023-11-21T11:19:41;39.47;;;17.70;;
912;SDS011;443;51.448;7.028;2023-11-21T11:22:12;32.37;;;16.10;;
912;SDS011;443;51.448;7.028;2023-11-21T11:24:58;41.47;;;17.37;;
912;SDS011;443;51.448;7.028;2023-11-21T11:27:40;49.80;;;24.97;;
912;SDS011;443;51.448;7.028;2023-11-21T11:30:16;44.27;;;18.87;;
912;SDS011;443;51.448;7.028;2023-11-21T11:32:55;29.27;;;17.20;;
912;SDS011;443;51.448;7.028;2023-11-21T11:35:33;33.97;;;20.23;;
912;SDS011;443;51.448;7.028;2023-11-21T11:38:08;42.07;;;21.73;;
912;SDS011;443;51.448;7.028;2023-11-21T11:40:39;39.37;;;17.67;;
912;SDS011;443;51.448;7.028;2023-11-21T11:43:07;29.30;;;17.80;;
912;SDS011;443;51.448;7.028;2023-11-21T11:45:34;35.97;;;15.10;;
912;SDS011;443;51.448;7.028;2023-11-21T11:48:07;33.00;;;18.40;;
912;SDS011;443;51.448;7.028;2023-11-21T11:50:41;37.07;;;18.67;;
912;SDS011;443;51.448;7.028;2023-11-21T11:53:28;38.13;;;19.43;;
912;SDS011;443;51.448;7.028;2023-11-21T11:58:47;29.20;;;15.10;;
912;SDS011;443;51.448;7.028;2023-11-21T12:01:16;39.40;;;18.27;;
912;SDS011;443;51.448;7.028;2023-11-21T12:03:45;35.83;;;17.90;;
912;SDS011;443;51.448;7.028;2023-11-21T12:06:56;31.30;;;17.93;;
912;SDS011;443;51.448;7.028;2023-11-21T12:09:25;31.33;;;17.80;;
912;SDS011;443;51.448;7.028;2023-11-21T12:11:52;30.30;;;18.33;;
912;SDS011;443;51.448;7.028;2023-11-21T12:14:20;27.50;;;14.27;;
912;SDS011;443;51.448;7.028;2023-11-21T12:16:48;37.40;;;18.30;;
912;SDS011;443;51.448;7.028;2023-11-21T12:19:16;37.43;;;18.03;;
912;SDS011;443;51.448;7.028;2023-11-21T12:21:43;35.20;;;18.73;;
912;SDS011;443;51.448;7.028;2023-11-21T12:24:10;32.47;;;18.80;;
912;SDS011;443;51.448;7.028;2023-11-21T12:26:38;31.33;;;19.10;;
912;SDS011;443;51.448;7.028;2023-11-21T12:29:05;38.63;;;21.33;;
912;SDS011;443;51.448;7.028;2023-11-21T12:31:33;39.37;;;20.00;;
912;SDS011;443;51.448;7.028;2023-11-21T12:34:00;49.23;;;20.70;;
912;SDS011;443;51.448;7.028;2023-11-21T12:36:28;31.33;;;17.70;;
912;SDS011;443;51.448;7.028;2023-11-21T12:38:55;36.87;;;19.77;;
912;SDS011;443;51.448;7.028;2023-11-21T12:41:22;33.20;;;18.80;;
912;SDS011;443;51.448;7.028;2023-11-21T12:43:49;32.50;;;18.87;;
912;SDS011;443;51.448;7.028;2023-11-21T12:46:16;39.73;;;18.83;;
912;SDS011;443;51.448;7.028;2023-11-21T12:48:43;38.70;;;19.73;;
912;SDS011;443;51.448;7.028;2023-11-21T12:51:11;30.67;;;15.80;;
912;SDS011;443;51.448;7.028;2023-11-21T12:53:42;37.57;;;17.47;;
912;SDS011;443;51.448;7.028;2023-11-21T12:56:09;35.27;;;17.60;;
912;SDS011;443;51.448;7.028;2023-11-21T12:58:37;24.50;;;15.67;;
912;SDS011;443;51.448;7.028;2023-11-21T13:01:05;27.47;;;15.20;;
912;SDS011;443;51.448;7.028;2023-11-21T13:03:37;25.97;;;15.07;;
912;SDS011;443;51.448;7.028;2023-11-21T13:06:05;28.37;;;15.33;;
912;SDS011;443;51.448;7.028;2023-11-21T13:08:33;24.83;;;14.03;;
912;SDS011;443;51.448;7.028;2023-11-21T13:11:02;17.63;;;11.80;;
912;SDS011;443;51.448;7.028;2023-11-21T13:13:31;21.57;;;13.17;;
912;SDS011;443;51.448;7.028;2023-11-21T13:15:59;24.80;;;12.80;;
912;SDS011;443;51.448;7.028;2023-11-21T13:18:29;21.00;;;12.17;;
912;SDS011;443;51.448;7.028;2023-11-21T13:20:57;24.17;;;14.20;;
912;SDS011;443;51.448;7.028;2023-11-21T13:23:24;22.50;;;13.77;;
912;SDS011;443;51.448;7.028;2023-11-21T13:25:52;18.60;;;12.53;;
912;SDS011;443;51.448;7.028;2023-11-21T13:28:20;18.13;;;11.00;;
912;SDS011;443;51.448;7.028;2023-11-21T13:30:49;18.90;;;13.37;;
912;SDS011;443;51.448;7.028;2023-11-21T13:33:17;19.87;;;13.63;;
912;SDS011;443;51.448;7.028;2023-11-21T13:35:47;16.03;;;9.83;;
912;SDS011;443;51.448;7.028;2023-11-21T13:38:16;12.73;;;9.50;;
912;SDS011;443;51.448;7.028;2023-11-21T13:40:48;14.53;;;9.70;;
912;SDS011;443;51.448;7.028;2023-11-21T13:43:18;12.80;;;9.00;;
912;SDS011;443;51.448;7.028;2023-11-21T13:45:49;14.30;;;8.33;;
912;SDS011;443;51.448;7.028;2023-11-21T13:48:20;16.77;;;9.93;;
912;SDS011;443;51.448;7.028;2023-11-21T13:50:53;13.10;;;9.67;;
912;SDS011;443;51.448;7.028;2023-11-21T13:53:23;17.03;;;10.07;;
912;SDS011;443;51.448;7.028;2023-11-21T13:55:50;15.80;;;11.63;;
912;SDS011;443;51.448;7.028;2023-11-21T13:58:20;10.13;;;8.07;;
912;SDS011;443;51.448;7.028;2023-11-21T14:00:51;11.13;;;7.23;;
912;SDS011;443;51.448;7.028;2023-11-21T14:03:21;11.40;;;7.00;;
912;SDS011;443;51.448;7.028;2023-11-21T14:05:57;15.23;;;7.90;;
912;SDS011;443;51.448;7.028;2023-11-21T14:08:25;11.63;;;8.10;;
912;SDS011;443;51.448;7.028;2023-11-21T14:10:53;10.97;;;6.33;;
912;SDS011;443;51.448;7.028;2023-11-21T14:13:24;10.10;;;5.43;;
912;SDS011;443;51.448;7.028;2023-11-21T14:15:50;9.07;;;6.87;;
912;SDS011;443;51.448;7.028;2023-11-21T14:18:22;11.37;;;8.03;;
912;SDS011;443;51.448;7.028;2023-11-21T14:20:57;9.60;;;6.83;;
912;SDS011;443;51.448;7.028;2023-11-21T14:23:25;11.23;;;6.70;;
912;SDS011;443;51.448;7.028;2023-11-21T14:25:51;9.53;;;6.27;;
912;SDS011;443;51.448;7.028;2023-11-21T14:28:18;7.90;;;5.90;;
912;SDS011;443;51.448;7.028;2023-11-21T14:30:46;9.90;;;5.60;;
912;SDS011;443;51.448;7.028;2023-11-21T14:33:13;12.17;;;5.80;;
912;SDS011;443;51.448;7.028;2023-11-21T14:35:41;12.93;;;5.53;;
912;SDS011;443;51.448;7.028;2023-11-21T14:38:08;7.97;;;5.13;;
912;SDS011;443;51.448;7.028;2023-11-21T14:40:35;9.03;;;5.00;;
912;SDS011;443;51.448;7.028;2023-11-21T14:43:02;10.17;;;5.63;;
912;SDS011;443;51.448;7.028;2023-11-21T14:45:31;10.33;;;5.70;;
912;SDS011;443;51.448;7.028;2023-11-21T14:47:59;7.77;;;5.77;;
912;SDS011;443;51.448;7.028;2023-11-21T14:50:32;6.80;;;4.97;;
912;SDS011;443;51.448;7.028;2023-11-21T14:53:15;9.90;;;5.60;;
912;SDS011;443;51.448;7.028;2023-11-21T14:55:41;8.30;;;5.67;;
912;SDS011;443;51.448;7.028;2023-11-21T14:58:21;9.07;;;5.53;;
912;SDS011;443;51.448;7.028;2023-11-21T15:00:52;9.43;;;4.57;;
912;SDS011;443;51.448;7.028;2023-11-21T15:03:24;7.60;;;4.50;;
912;SDS011;443;51.448;7.028;2023-11-21T15:06:09;7.80;;;4.23;;
912;SDS011;443;51.448;7.028;2023-11-21T15:08:51;7.80;;;4.30;;
912;SDS011;443;51.448;7.028;2023-11-21T15:11:22;3.70;;;2.87;;
912;SDS011;443;51.448;7.028;2023-11-21T15:13:55;5.83;;;4.30;;
912;SDS011;443;51.448;7.028;2023-11-21T15:16:22;5.37;;;3.70;;
912;SDS011;443;51.448;7.028;2023-11-21T15:18:52;5.60;;;3.20;;
912;SDS011;443;51.448;7.028;2023-11-21T15:21:19;5.70;;;2.97;;
912;SDS011;443;51.448;7.028;2023-11-21T15:23:47;5.63;;;3.33;;
912;SDS011;443;51.448;7.028;2023-11-21T15:26:13;3.20;;;2.70;;
912;SDS011;443;51.448;7.028;2023-11-21T15:28:40;3.80;;;2.63;;
912;SDS011;443;51.448;7.028;2023-11-21T15:31:07;3.77;;;2.90;;
912;SDS011;443;51.448;7.028;2023-11-21T15:33:34;3.20;;;2.37;;
912;SDS011;443;51.448;7.028;2023-11-21T15:36:03;3.03;;;2.00;;
912;SDS011;443;51.448;7.028;2023-11-21T15:38:35;4.13;;;2.70;;